createdAt,value
2022-11-29T00:01:45.439Z,11.20
2022-11-29T00:04:15.190Z,11.00
2022-11-29T00:06:43.847Z,13.40
2022-11-29T00:09:13.562Z,11.80
2022-11-29T00:12:02.427Z,11.30
2022-11-29T00:14:32.155Z,11.80
2022-11-29T00:17:04.861Z,10.00
2022-11-29T00:19:34.732Z,11.10
2022-11-29T00:22:06.478Z,10.50
2022-11-29T00:24:36.606Z,10.80
2022-11-29T00:27:04.974Z,12.80
2022-11-29T00:29:34.091Z,11.70
2022-11-29T00:32:02.655Z,11.90
2022-11-29T00:34:31.748Z,8.30
2022-11-29T00:37:00.250Z,13.30
2022-11-29T00:39:29.949Z,14.50
2022-11-29T00:41:58.420Z,11.60
2022-11-29T00:44:28.151Z,12.40
2022-11-29T00:46:56.815Z,10.00
2022-11-29T00:49:25.311Z,9.70
2022-11-29T00:51:53.792Z,12.00
2022-11-29T00:54:22.561Z,9.40
2022-11-29T00:56:53.014Z,9.70
2022-11-29T00:59:22.211Z,12.40
2022-11-29T01:01:51.893Z,11.00
2022-11-29T01:04:21.760Z,11.20
2022-11-29T01:06:53.694Z,9.90
2022-11-29T01:09:22.256Z,11.70
2022-11-29T01:11:51.162Z,9.60
2022-11-29T01:14:20.251Z,7.20
2022-11-29T01:16:48.996Z,9.40
2022-11-29T01:19:17.831Z,9.70
2022-11-29T01:21:46.412Z,8.90
2022-11-29T01:24:15.972Z,10.70
2022-11-29T01:26:44.613Z,8.80
2022-11-29T01:29:13.790Z,9.90
2022-11-29T01:31:42.283Z,10.60
2022-11-29T01:34:10.955Z,10.00
2022-11-29T01:36:39.333Z,11.30
2022-11-29T01:39:08.860Z,12.20
2022-11-29T01:41:38.251Z,9.80
2022-11-29T01:44:26.585Z,10.00
2022-11-29T01:46:55.990Z,10.20
2022-11-29T01:49:28.911Z,9.30
2022-11-29T01:52:06.514Z,11.00
2022-11-29T01:54:39.391Z,11.60
2022-11-29T01:57:09.691Z,11.20
2022-11-29T01:59:42.728Z,12.80
2022-11-29T02:02:32.713Z,11.80
2022-11-29T02:05:03.569Z,11.90
2022-11-29T02:07:32.650Z,12.40
2022-11-29T02:10:01.891Z,11.90
2022-11-29T02:13:08.445Z,11.60
2022-11-29T02:15:40.972Z,11.20
2022-11-29T02:18:30.613Z,9.90
2022-11-29T02:21:08.092Z,11.90
2022-11-29T02:23:58.191Z,9.90
2022-11-29T02:26:38.549Z,9.20
2022-11-29T02:29:44.909Z,10.70
2022-11-29T02:32:38.591Z,10.30
2022-11-29T02:35:10.250Z,11.40
2022-11-29T02:38:11.812Z,10.30
2022-11-29T02:40:49.484Z,10.00
2022-11-29T02:43:36.194Z,8.40
2022-11-29T02:46:04.957Z,9.30
2022-11-29T02:48:54.371Z,9.50
2022-11-29T02:51:31.651Z,9.30
2022-11-29T02:54:17.225Z,10.20
2022-11-29T02:56:50.205Z,9.20
2022-11-29T02:59:27.810Z,9.80
2022-11-29T03:02:30.313Z,9.60
2022-11-29T03:05:22.612Z,7.80
2022-11-29T03:08:06.571Z,9.40
2022-11-29T03:10:54.327Z,9.80
2022-11-29T03:13:43.879Z,9.00
2022-11-29T03:16:43.108Z,8.40
2022-11-29T03:19:12.196Z,8.10
2022-11-29T03:21:49.764Z,10.00
2022-11-29T03:24:25.370Z,9.40
2022-11-29T03:27:02.353Z,7.20
2022-11-29T03:29:37.075Z,8.10
2022-11-29T03:32:49.010Z,8.80
2022-11-29T03:35:24.990Z,6.20
2022-11-29T03:38:12.191Z,6.90
2022-11-29T03:40:58.290Z,6.60
2022-11-29T03:44:01.408Z,6.80
2022-11-29T03:46:36.382Z,6.40
2022-11-29T03:49:29.265Z,5.80
2022-11-29T03:52:23.440Z,9.10
2022-11-29T03:55:20.510Z,7.50
2022-11-29T03:58:01.189Z,8.50
2022-11-29T04:00:43.157Z,7.10
2022-11-29T04:03:42.477Z,7.10
2022-11-29T04:06:36.555Z,7.90
2022-11-29T04:09:11.791Z,8.80
2022-11-29T04:11:59.735Z,7.70
2022-11-29T04:14:50.130Z,9.00
2022-11-29T04:17:37.550Z,7.20
2022-11-29T04:20:45.336Z,7.80
2022-11-29T04:23:39.031Z,6.50
2022-11-29T04:26:59.331Z,6.70
2022-11-29T04:29:51.651Z,8.90
2022-11-29T04:32:45.029Z,8.00
2022-11-29T04:35:55.265Z,6.20
2022-11-29T04:38:45.560Z,7.50
2022-11-29T04:41:51.854Z,7.00
2022-11-29T04:44:54.836Z,5.90
2022-11-29T04:47:38.871Z,7.70
2022-11-29T04:50:39.502Z,6.90
2022-11-29T04:53:29.391Z,8.50
2022-11-29T04:56:14.974Z,8.90
2022-11-29T04:58:52.570Z,8.40
2022-11-29T05:01:39.428Z,7.60
2022-11-29T05:04:17.495Z,6.30
2022-11-29T05:06:58.772Z,8.50
2022-11-29T05:09:48.450Z,7.80
2022-11-29T05:12:43.868Z,9.10
2022-11-29T05:15:44.613Z,7.80
2022-11-29T05:18:46.768Z,5.80
2022-11-29T05:21:37.245Z,7.40
2022-11-29T05:24:25.488Z,8.10
2022-11-29T05:27:23.169Z,7.20
2022-11-29T05:30:04.254Z,6.50
2022-11-29T05:32:38.141Z,6.70
2022-11-29T05:35:51.072Z,7.90
2022-11-29T05:38:42.379Z,8.50
2022-11-29T05:41:21.708Z,8.40
2022-11-29T05:44:30.250Z,8.40
2022-11-29T05:47:03.638Z,7.10
2022-11-29T05:49:45.522Z,6.10
2022-11-29T05:52:51.810Z,8.00
2022-11-29T05:55:29.392Z,8.70
2022-11-29T05:58:17.622Z,6.10
2022-11-29T06:00:55.847Z,8.20
2022-11-29T06:03:29.957Z,8.70
2022-11-29T06:06:08.688Z,6.70
2022-11-29T06:08:45.893Z,9.00
2022-11-29T06:11:22.357Z,8.40
2022-11-29T06:14:13.000Z,8.80
2022-11-29T06:16:57.395Z,8.50
2022-11-29T06:19:41.419Z,7.00
2022-11-29T06:22:13.690Z,9.10
2022-11-29T06:25:01.851Z,6.70
2022-11-29T06:27:53.894Z,8.30
2022-11-29T06:30:28.091Z,6.10
2022-11-29T06:33:10.295Z,7.50
2022-11-29T06:35:50.588Z,8.90
2022-11-29T06:38:30.107Z,8.40
2022-11-29T06:41:02.631Z,8.20
2022-11-29T06:43:31.977Z,7.80
2022-11-29T06:46:15.534Z,8.00
2022-11-29T06:49:09.170Z,9.30
2022-11-29T06:52:15.741Z,8.70
2022-11-29T06:55:01.029Z,7.90
2022-11-29T06:57:36.550Z,9.50
2022-11-29T07:00:10.369Z,8.40
2022-11-29T07:03:12.123Z,10.70
2022-11-29T07:05:41.318Z,9.40
2022-11-29T07:08:22.759Z,10.20
2022-11-29T07:10:54.308Z,7.40
2022-11-29T07:13:23.672Z,8.80
2022-11-29T07:16:08.382Z,7.90
2022-11-29T07:18:42.351Z,9.20
2022-11-29T07:21:11.532Z,9.10
2022-11-29T07:23:56.190Z,10.40
2022-11-29T07:26:30.788Z,7.00
2022-11-29T07:29:31.852Z,9.30
2022-11-29T07:32:12.622Z,7.90
2022-11-29T07:35:02.610Z,9.80
2022-11-29T07:37:39.686Z,8.90
2022-11-29T07:40:15.352Z,9.80
2022-11-29T07:42:47.929Z,8.30
2022-11-29T07:45:19.470Z,9.30
2022-11-29T07:47:49.179Z,8.10
2022-11-29T07:50:18.191Z,9.40
2022-11-29T07:52:48.104Z,10.30
2022-11-29T07:55:19.268Z,8.30
2022-11-29T07:57:48.846Z,8.70
2022-11-29T08:00:18.737Z,7.90
2022-11-29T08:36:39.821Z,12.30
2022-11-29T08:39:09.703Z,10.20
2022-11-29T08:41:39.019Z,11.10
2022-11-29T08:44:07.923Z,10.70
2022-11-29T08:46:55.423Z,9.30
2022-11-29T08:49:24.181Z,9.40
2022-11-29T08:52:13.192Z,8.50
2022-11-29T08:54:42.087Z,7.80
2022-11-29T08:57:38.532Z,10.00
2022-11-29T09:00:00.932Z,10.00
2022-11-29T09:02:31.388Z,10.10
2022-11-29T09:05:00.755Z,10.00
2022-11-29T09:07:29.561Z,8.10
2022-11-29T09:09:58.540Z,8.70
2022-11-29T09:12:27.637Z,10.00
2022-11-29T09:14:56.239Z,9.60
2022-11-29T09:17:25.206Z,10.10
2022-11-29T09:19:53.825Z,9.10
2022-11-29T09:22:22.578Z,9.20
2022-11-29T09:24:51.288Z,9.80
2022-11-29T09:27:20.000Z,11.00
2022-11-29T09:29:48.736Z,9.70
2022-11-29T09:32:17.524Z,10.40
2022-11-29T09:34:46.490Z,9.70
2022-11-29T09:37:15.540Z,9.10
2022-11-29T09:39:44.400Z,10.30
2022-11-29T09:42:54.671Z,8.90
2022-11-29T09:45:32.807Z,8.60
2022-11-29T09:48:09.451Z,8.90
2022-11-29T09:50:44.344Z,9.80
2022-11-29T09:53:26.381Z,10.30
2022-11-29T09:56:07.133Z,8.70
2022-11-29T09:58:44.057Z,9.40
2022-11-29T10:01:19.846Z,10.60
2022-11-29T10:03:52.501Z,10.30
2022-11-29T10:06:32.354Z,11.60
2022-11-29T10:09:08.665Z,11.50
2022-11-29T10:12:07.967Z,10.30
2022-11-29T10:15:01.031Z,10.30
2022-11-29T10:33:27.070Z,14.60
2022-11-29T10:36:02.337Z,10.60
2022-11-29T10:38:31.961Z,12.90
2022-11-29T10:41:10.295Z,11.70
2022-11-29T10:43:39.823Z,12.20
2022-11-29T10:46:15.162Z,10.80
2022-11-29T10:48:44.169Z,11.40
2022-11-29T10:51:19.435Z,9.60
2022-11-29T10:53:50.397Z,10.00
2022-11-29T10:56:24.553Z,10.90
2022-11-29T10:59:05.607Z,9.60
2022-11-29T11:01:38.812Z,8.70
2022-11-29T11:04:35.283Z,10.30
2022-11-29T11:07:05.564Z,9.50
2022-11-29T11:09:37.625Z,10.20
2022-11-29T11:12:15.734Z,10.60
2022-11-29T11:14:45.679Z,10.50
2022-11-29T11:17:26.842Z,10.90
2022-11-29T11:20:06.119Z,10.60
2022-11-29T11:22:35.870Z,10.00
2022-11-29T11:25:07.669Z,12.00
2022-11-29T11:27:40.605Z,10.90
2022-11-29T11:30:22.717Z,12.40
2022-11-29T11:33:25.601Z,11.30
2022-11-29T11:36:09.544Z,11.20
2022-11-29T11:38:58.922Z,9.70
2022-11-29T11:41:47.884Z,8.90
2022-11-29T11:44:47.800Z,10.50
2022-11-29T11:47:32.503Z,9.30
2022-11-29T11:50:02.674Z,10.90
2022-11-29T11:52:48.755Z,9.30
2022-11-29T11:55:22.175Z,9.90
2022-11-29T11:58:10.346Z,10.00
2022-11-29T12:01:03.939Z,9.00
2022-11-29T12:03:56.749Z,11.50
2022-11-29T12:06:25.817Z,11.50
2022-11-29T12:09:00.165Z,9.80
2022-11-29T12:11:35.220Z,9.80
2022-11-29T12:14:07.131Z,10.60
2022-11-29T12:16:37.558Z,7.90
2022-11-29T12:19:24.260Z,11.20
2022-11-29T12:21:56.676Z,9.00
2022-11-29T12:24:33.410Z,9.00
2022-11-29T12:27:05.848Z,9.90
2022-11-29T12:29:36.034Z,9.70
2022-11-29T12:32:25.165Z,9.70
2022-11-29T12:35:18.840Z,9.20
2022-11-29T12:38:02.269Z,9.90
2022-11-29T12:40:44.587Z,8.50
2022-11-29T12:43:25.870Z,7.10
2022-11-29T12:46:13.817Z,8.10
2022-11-29T12:48:48.388Z,8.70
2022-11-29T12:51:29.509Z,8.00
2022-11-29T12:54:05.585Z,7.30
2022-11-29T12:56:46.324Z,6.90
2022-11-29T12:59:34.746Z,6.10
2022-11-29T13:02:23.090Z,7.40
2022-11-29T13:05:00.109Z,6.90
2022-11-29T13:07:52.623Z,9.30
2022-11-29T13:10:55.773Z,9.00
2022-11-29T13:13:31.531Z,8.70
2022-11-29T13:16:42.331Z,8.40
2022-11-29T13:19:46.278Z,7.80
2022-11-29T13:22:40.670Z,8.40
2022-11-29T13:25:31.255Z,8.00
2022-11-29T13:28:20.731Z,8.00
2022-11-29T13:30:50.671Z,7.90
2022-11-29T13:33:25.644Z,7.00
2022-11-29T13:36:02.681Z,6.30
2022-11-29T13:38:41.070Z,7.30
2022-11-29T13:41:15.792Z,6.40
2022-11-29T13:44:08.236Z,7.10
2022-11-29T13:47:02.110Z,7.80
2022-11-29T13:49:49.869Z,7.80
2022-11-29T13:52:43.853Z,7.70
2022-11-29T13:55:13.225Z,7.50
2022-11-29T13:58:14.817Z,8.90
2022-11-29T14:00:44.852Z,6.30
2022-11-29T14:24:38.358Z,10.60
2022-11-29T14:27:07.470Z,9.30
2022-11-29T14:29:51.318Z,7.30
2022-11-29T14:32:52.184Z,7.10
2022-11-29T14:35:30.035Z,7.30
2022-11-29T14:38:33.432Z,7.70
2022-11-29T14:41:38.162Z,7.40
2022-11-29T14:44:28.507Z,7.50
2022-11-29T14:47:24.991Z,8.80
2022-11-29T14:49:55.422Z,8.50
2022-11-29T14:52:32.928Z,8.20
2022-11-29T14:55:29.649Z,8.60
2022-11-29T14:58:04.381Z,8.60
2022-11-29T15:00:32.967Z,7.50
2022-11-29T15:03:03.196Z,8.30
2022-11-29T15:05:41.151Z,7.60
2022-11-29T15:08:28.611Z,7.80
2022-11-29T15:11:04.974Z,7.30
2022-11-29T15:13:36.657Z,8.50
2022-11-29T15:16:14.680Z,7.70
2022-11-29T15:18:53.608Z,9.40
2022-11-29T15:21:44.853Z,8.70
2022-11-29T15:24:16.335Z,7.20
2022-11-29T15:27:00.333Z,7.90
2022-11-29T15:29:32.326Z,7.30
2022-11-29T15:32:05.124Z,5.20
2022-11-29T15:34:53.807Z,7.90
2022-11-29T15:37:40.599Z,6.50
2022-11-29T15:40:18.903Z,7.60
2022-11-29T15:42:51.074Z,8.60
2022-11-29T15:45:31.197Z,8.90
2022-11-29T15:48:17.311Z,9.20
2022-11-29T15:51:06.872Z,8.50
2022-11-29T15:53:47.768Z,6.50
2022-11-29T15:56:37.941Z,7.60
2022-11-29T15:59:13.278Z,6.90
2022-11-29T16:01:45.367Z,8.20
2022-11-29T16:04:24.885Z,8.50
2022-11-29T16:06:55.009Z,7.90
2022-11-29T16:09:34.170Z,8.70
2022-11-29T16:12:04.252Z,7.80
2022-11-29T16:14:33.038Z,7.30
2022-11-29T16:17:03.822Z,7.80
2022-11-29T16:19:35.275Z,7.50
2022-11-29T16:22:18.476Z,6.70
2022-11-29T16:24:55.063Z,8.60
2022-11-29T16:27:24.591Z,9.10
2022-11-29T16:29:55.550Z,7.20
2022-11-29T16:32:34.186Z,8.20
2022-11-29T16:35:20.077Z,7.70
2022-11-29T16:37:50.025Z,7.30
2022-11-29T16:40:29.315Z,8.10
2022-11-29T16:43:05.168Z,8.20
2022-11-29T16:45:42.603Z,6.40
2022-11-29T16:48:26.065Z,7.00
2022-11-29T16:51:19.059Z,5.80
2022-11-29T16:53:54.609Z,7.90
2022-11-29T16:56:25.558Z,7.20
2022-11-29T16:59:24.817Z,6.90
2022-11-29T17:01:47.191Z,8.30
2022-11-29T17:04:23.783Z,7.50
2022-11-29T17:06:59.411Z,4.90
2022-11-29T17:09:31.907Z,7.00
2022-11-29T17:12:04.523Z,8.10
2022-11-29T17:14:33.848Z,8.30
2022-11-29T17:17:03.911Z,5.00
2022-11-29T17:19:34.513Z,6.80
2022-11-29T17:22:04.617Z,5.60
2022-11-29T17:24:35.050Z,7.60
2022-11-29T17:27:04.733Z,6.30
2022-11-29T17:29:35.728Z,5.70
2022-11-29T17:32:05.727Z,7.10
2022-11-29T17:34:35.223Z,6.70
2022-11-29T17:37:04.128Z,7.00
2022-11-29T17:39:34.006Z,7.60
2022-11-29T17:42:02.710Z,7.70
2022-11-29T17:44:31.690Z,7.90
2022-11-29T17:47:02.132Z,7.50
2022-11-29T17:49:31.102Z,7.20
2022-11-29T17:52:01.270Z,7.50
2022-11-29T17:54:33.411Z,8.00
2022-11-29T17:57:04.460Z,6.30
2022-11-29T17:59:35.281Z,7.70
2022-11-29T18:02:06.260Z,7.30
2022-11-29T18:04:38.590Z,6.20
2022-11-29T18:07:08.199Z,8.30
2022-11-29T18:09:37.797Z,7.20
2022-11-29T18:12:07.706Z,8.10
2022-11-29T18:14:39.362Z,7.80
2022-11-29T18:17:11.244Z,8.30
2022-11-29T18:19:41.053Z,7.10
2022-11-29T18:22:10.652Z,8.10
2022-11-29T18:24:43.951Z,7.70
2022-11-29T18:27:13.571Z,7.40
2022-11-29T18:29:44.392Z,7.10
2022-11-29T18:32:13.991Z,7.40
2022-11-29T18:34:45.120Z,8.60
2022-11-29T18:37:32.835Z,8.00
2022-11-29T18:40:09.281Z,6.80
2022-11-29T18:42:39.906Z,7.50
2022-11-29T18:45:10.600Z,6.20
2022-11-29T18:47:40.915Z,6.90
2022-11-29T18:50:10.309Z,7.20
2022-11-29T18:52:40.921Z,7.00
2022-11-29T18:55:10.352Z,7.90
2022-11-29T18:57:41.387Z,7.80
2022-11-29T19:00:11.792Z,8.10
2022-11-29T19:02:40.871Z,7.30
2022-11-29T19:05:11.946Z,6.90
2022-11-29T19:07:51.043Z,6.90
2022-11-29T19:10:22.640Z,7.60
2022-11-29T19:12:52.463Z,8.50
2022-11-29T19:15:23.401Z,10.40
2022-11-29T19:17:54.633Z,11.30
2022-11-29T19:20:28.323Z,11.90
2022-11-29T19:23:00.742Z,11.40
2022-11-29T19:25:30.419Z,12.40
2022-11-29T19:28:05.118Z,12.80
2022-11-29T19:30:39.279Z,11.50
2022-11-29T19:33:09.990Z,12.90
2022-11-29T19:35:40.851Z,14.20
2022-11-29T19:38:12.086Z,14.50
2022-11-29T19:40:43.638Z,14.10
2022-11-29T19:43:14.372Z,14.10
2022-11-29T19:45:46.135Z,11.90
2022-11-29T19:48:21.679Z,13.40
2022-11-29T19:50:54.951Z,12.90
2022-11-29T19:53:25.693Z,10.80
2022-11-29T19:55:56.111Z,12.30
2022-11-29T19:58:26.653Z,11.10
2022-11-29T20:00:58.110Z,12.90
2022-11-29T20:03:32.152Z,15.20
2022-11-29T20:06:05.556Z,11.80
2022-11-29T20:08:37.361Z,12.60
2022-11-29T20:11:18.873Z,13.40
2022-11-29T20:14:02.190Z,14.60
2022-11-29T20:16:32.389Z,15.50
2022-11-29T20:19:05.650Z,14.30
2022-11-29T20:21:39.710Z,13.90
2022-11-29T20:24:11.543Z,15.20
2022-11-29T20:26:44.401Z,15.00
2022-11-29T20:29:16.432Z,12.90
2022-11-29T20:31:51.459Z,14.50
2022-11-29T20:34:24.894Z,16.10
2022-11-29T20:37:07.670Z,15.10
2022-11-29T20:39:51.754Z,12.30
2022-11-29T20:42:53.090Z,14.70
2022-11-29T20:45:25.548Z,14.90
2022-11-29T20:48:14.720Z,15.30
2022-11-29T20:50:49.690Z,11.50
2022-11-29T20:53:27.923Z,17.10
2022-11-29T20:55:58.152Z,13.40
2022-11-29T20:58:28.667Z,15.80
2022-11-29T21:00:59.352Z,19.40
2022-11-29T21:03:29.913Z,16.70
2022-11-29T21:06:02.813Z,11.60
2022-11-29T21:08:32.437Z,14.90
2022-11-29T21:11:09.682Z,13.40
2022-11-29T21:13:38.706Z,15.60
2022-11-29T21:16:08.486Z,15.10
2022-11-29T21:18:38.569Z,13.60
2022-11-29T21:21:10.611Z,15.10
2022-11-29T21:23:49.107Z,16.30
2022-11-29T21:26:24.114Z,18.60
2022-11-29T21:29:09.232Z,23.10
2022-11-29T21:31:38.937Z,18.80
2022-11-29T21:34:09.476Z,13.30
2022-11-29T21:36:39.053Z,20.50
2022-11-29T21:39:16.352Z,18.50
2022-11-29T21:41:45.846Z,16.00
2022-11-29T21:44:15.872Z,17.70
2022-11-29T21:46:45.503Z,16.30
2022-11-29T21:49:15.088Z,16.50
2022-11-29T21:51:45.017Z,19.80
2022-11-29T21:54:13.878Z,17.60
2022-11-29T21:56:42.815Z,15.60
2022-11-29T21:59:12.304Z,20.20
2022-11-29T22:01:41.193Z,16.60
2022-11-29T22:04:10.396Z,21.30
2022-11-29T22:06:39.876Z,20.10
2022-11-29T22:09:08.554Z,20.40
2022-11-29T22:11:37.558Z,19.80
2022-11-29T22:14:15.772Z,17.10
2022-11-29T22:16:54.706Z,21.30
2022-11-29T22:19:27.038Z,20.40
2022-11-29T22:22:04.356Z,16.80
2022-11-29T22:24:34.858Z,19.80
2022-11-29T22:27:03.765Z,18.10
2022-11-29T22:29:32.467Z,21.20
2022-11-29T22:32:02.022Z,17.20
2022-11-29T22:34:30.647Z,16.30
2022-11-29T22:36:59.652Z,20.30
2022-11-29T22:39:28.535Z,20.10
2022-11-29T22:41:57.328Z,18.40
2022-11-29T22:44:26.513Z,20.30
2022-11-29T22:46:55.346Z,14.70
2022-11-29T22:49:25.403Z,18.50
2022-11-29T22:51:54.918Z,22.20
2022-11-29T22:54:23.499Z,21.00
2022-11-29T22:56:53.007Z,21.80
2022-11-29T22:59:21.472Z,21.10
2022-11-29T23:01:50.612Z,19.60
2022-11-29T23:04:19.362Z,24.70
2022-11-29T23:06:50.973Z,23.00
2022-11-29T23:09:22.677Z,18.70
2022-11-29T23:11:54.637Z,19.00
2022-11-29T23:14:23.663Z,19.10
2022-11-29T23:16:53.135Z,15.80
2022-11-29T23:19:22.023Z,18.70
2022-11-29T23:21:50.922Z,10.60
2022-11-29T23:24:19.821Z,19.50
2022-11-29T23:26:48.609Z,19.40
2022-11-29T23:29:19.393Z,17.50
2022-11-29T23:31:49.786Z,19.90
2022-11-29T23:34:18.648Z,16.80
2022-11-29T23:36:52.608Z,18.50
2022-11-29T23:39:22.066Z,19.70
2022-11-29T23:41:50.957Z,16.70
2022-11-29T23:44:19.626Z,19.80
2022-11-29T23:46:48.325Z,21.80
2022-11-29T23:49:17.227Z,18.00
2022-11-29T23:51:46.006Z,18.30
2022-11-29T23:54:14.687Z,22.40
2022-11-29T23:56:43.681Z,21.70
2022-11-29T23:59:12.457Z,17.10
